Time;durP1;ratioP1;P1;durP2;ratioP2;P2;SDS_P1;SDS_P2;PMS_P1;PMS_P2;Temp;Humidity;BMP_temperature;BMP_pressure;BME280_temperature;BME280_humidity;BME280_pressure;Samples;Min_cycle;Max_cycle;Signal;HPM_P1;HPM_P2
2022/03/02 00:00:30;;;;;;;7.13;5.55;;;18.40;40.40;;;;;;5086264;28;20165;-84
2022/03/02 00:03:00;;;;;;;6.82;5.18;;;18.40;40.70;;;;;;5052662;28;20259;-84
2022/03/02 00:05:30;;;;;;;7.60;4.97;;;18.40;40.50;;;;;;5068822;28;20236;-84
2022/03/02 00:08:00;;;;;;;8.95;5.50;;;18.40;41.20;;;;;;5052331;28;20185;-86
2022/03/02 00:10:28;;;;;;;6.60;4.97;;;18.40;40.70;;;;;;5052051;28;20239;-85
2022/03/02 00:12:55;;;;;;;8.18;5.28;;;18.30;40.70;;;;;;5052012;28;20193;-84
2022/03/02 00:15:21;;;;;;;7.80;5.32;;;18.30;40.90;;;;;;5069421;28;20161;-84
2022/03/02 00:17:46;;;;;;;7.45;4.47;;;18.30;40.70;;;;;;5086090;28;20154;-85
2022/03/02 00:20:16;;;;;;;6.32;4.60;;;18.40;40.80;;;;;;5086169;28;20181;-84
2022/03/02 00:22:42;;;;;;;7.13;4.60;;;18.30;40.80;;;;;;5085936;28;20197;-84
2022/03/02 00:25:08;;;;;;;7.20;4.78;;;18.40;41.00;;;;;;5085543;28;20552;-85
2022/03/02 00:27:34;;;;;;;9.10;5.40;;;18.30;41.00;;;;;;5069675;28;20162;-86
2022/03/02 00:30:05;;;;;;;6.50;4.90;;;18.30;41.10;;;;;;5068721;28;20539;-85
2022/03/02 00:32:31;;;;;;;7.43;5.20;;;18.30;41.00;;;;;;5068287;28;20225;-84
2022/03/02 00:34:58;;;;;;;7.20;5.20;;;18.30;41.00;;;;;;5085515;28;20180;-84
2022/03/02 00:37:29;;;;;;;9.48;5.50;;;18.30;40.90;;;;;;5067920;28;20182;-84
2022/03/02 00:39:56;;;;;;;9.18;5.32;;;18.30;41.30;;;;;;5051973;28;20191;-85
2022/03/02 00:42:29;;;;;;;7.40;4.90;;;18.30;41.00;;;;;;5067708;28;20231;-84
2022/03/02 00:44:57;;;;;;;8.55;5.55;;;18.30;41.00;;;;;;5051785;28;20185;-85
2022/03/02 00:47:22;;;;;;;8.82;5.30;;;18.20;40.80;;;;;;5051855;28;20176;-84
2022/03/02 00:49:48;;;;;;;7.82;5.00;;;18.30;41.40;;;;;;5084941;28;20154;-85
2022/03/02 00:52:15;;;;;;;9.02;5.15;;;18.30;41.40;;;;;;5051681;28;20557;-84
2022/03/02 00:54:41;;;;;;;9.18;5.43;;;18.20;41.20;;;;;;5052010;28;20176;-84
2022/03/02 00:57:07;;;;;;;8.15;5.22;;;18.20;41.30;;;;;;5069046;28;20165;-84
2022/03/02 00:59:32;;;;;;;8.20;5.30;;;18.20;41.10;;;;;;5068387;28;20623;-85
2022/03/02 01:01:58;;;;;;;8.23;5.30;;;18.20;41.30;;;;;;5052136;28;20604;-84
2022/03/02 01:04:25;;;;;;;7.75;5.43;;;18.20;41.10;;;;;;5052248;28;20186;-85
2022/03/02 01:06:52;;;;;;;7.18;5.20;;;18.30;41.40;;;;;;5069859;28;20221;-84
2022/03/02 01:09:19;;;;;;;9.00;5.57;;;18.20;41.50;;;;;;5070974;28;20177;-85
2022/03/02 01:11:53;;;;;;;9.23;5.05;;;18.20;41.70;;;;;;5088180;28;20158;-85
2022/03/02 01:14:24;;;;;;;7.10;4.80;;;18.10;41.30;;;;;;5087763;28;20152;-84
2022/03/02 01:16:52;;;;;;;9.82;5.53;;;18.20;41.40;;;;;;5069296;28;20192;-84
2022/03/02 01:19:23;;;;;;;9.13;5.50;;;18.30;41.50;;;;;;5068030;28;20179;-85
2022/03/02 01:21:51;;;;;;;7.53;5.07;;;18.20;41.70;;;;;;5085724;28;20217;-88
2022/03/02 01:24:16;;;;;;;7.63;5.13;;;18.20;41.50;;;;;;5050169;28;20217;-84
2022/03/02 01:26:46;;;;;;;8.43;4.93;;;18.20;41.80;;;;;;5068729;28;20179;-84
2022/03/02 01:29:12;;;;;;;8.20;5.30;;;18.10;41.50;;;;;;5084465;28;20184;-84
2022/03/02 01:31:38;;;;;;;7.00;4.80;;;18.10;41.80;;;;;;5067933;28;20256;-85
2022/03/02 01:34:03;;;;;;;7.68;4.60;;;18.10;41.70;;;;;;5050705;28;20162;-84
2022/03/02 01:36:31;;;;;;;6.72;4.97;;;18.10;41.80;;;;;;5050911;28;20223;-84
2022/03/02 01:38:57;;;;;;;7.20;4.80;;;18.10;41.60;;;;;;5067721;28;20145;-85
2022/03/02 01:41:24;;;;;;;7.25;4.90;;;18.10;42.10;;;;;;5085044;28;20161;-84
2022/03/02 01:43:52;;;;;;;8.52;5.38;;;18.10;41.70;;;;;;5085156;28;20196;-84
2022/03/02 01:46:18;;;;;;;6.93;5.00;;;18.10;42.00;;;;;;5051005;28;20165;-86
2022/03/02 01:48:44;;;;;;;9.90;5.13;;;18.10;42.20;;;;;;5051204;28;20198;-85
2022/03/02 01:51:13;;;;;;;7.55;5.07;;;18.10;42.70;;;;;;5067886;28;20154;-84
2022/03/02 01:53:41;;;;;;;7.32;5.10;;;18.00;42.10;;;;;;5083100;28;20169;-85
2022/03/02 01:56:10;;;;;;;8.85;5.35;;;18.10;42.00;;;;;;5085075;28;20219;-84
2022/03/02 01:58:37;;;;;;;7.00;4.75;;;18.10;42.00;;;;;;5051381;28;20165;-85
2022/03/02 02:01:08;;;;;;;7.13;5.10;;;18.00;42.10;;;;;;5067913;28;20145;-84
2022/03/02 02:03:39;;;;;;;7.85;4.90;;;18.00;42.20;;;;;;5066042;28;20217;-85
2022/03/02 02:06:13;;;;;;;8.15;5.35;;;18.10;42.20;;;;;;5032832;28;20181;-84
2022/03/02 02:08:43;;;;;;;9.13;5.20;;;18.00;42.10;;;;;;5049665;28;20185;-85
2022/03/02 02:11:11;;;;;;;7.82;5.68;;;18.00;42.40;;;;;;5066636;28;20182;-84
2022/03/02 02:13:39;;;;;;;7.50;5.20;;;18.00;42.40;;;;;;5049507;28;20189;-85
2022/03/02 02:16:10;;;;;;;8.30;5.22;;;18.00;42.30;;;;;;5049963;28;20235;-84
2022/03/02 02:18:40;;;;;;;7.10;5.20;;;18.00;42.20;;;;;;5033021;28;20263;-84
2022/03/02 02:21:07;;;;;;;8.93;5.05;;;18.00;42.20;;;;;;5085161;28;20211;-84
2022/03/02 02:23:34;;;;;;;7.55;5.22;;;18.00;42.50;;;;;;5051037;28;20193;-84
2022/03/02 02:26:02;;;;;;;7.20;4.95;;;18.00;42.50;;;;;;5050549;28;20180;-84
2022/03/02 02:28:30;;;;;;;7.13;5.05;;;18.00;42.50;;;;;;5049925;28;20535;-84
2022/03/02 02:30:59;;;;;;;8.93;5.13;;;18.00;42.50;;;;;;5066469;28;20212;-87
2022/03/02 02:33:25;;;;;;;7.70;4.93;;;18.00;42.40;;;;;;5083355;28;20220;-84
2022/03/02 02:35:51;;;;;;;7.50;5.05;;;18.00;42.60;;;;;;5067292;28;20161;-83
2022/03/02 02:38:17;;;;;;;6.63;4.80;;;18.00;42.70;;;;;;5083432;28;20209;-84
2022/03/02 02:40:43;;;;;;;7.78;5.10;;;18.00;42.60;;;;;;5083927;28;20154;-84
2022/03/02 02:43:09;;;;;;;7.55;5.30;;;18.00;42.60;;;;;;5051037;28;20200;-84
2022/03/02 02:45:37;;;;;;;6.68;5.00;;;17.90;42.30;;;;;;5066897;28;20157;-86
2022/03/02 02:48:08;;;;;;;7.72;4.85;;;18.00;42.50;;;;;;5084018;28;20154;-85
2022/03/02 02:50:34;;;;;;;7.43;5.15;;;18.00;42.60;;;;;;5049068;28;20173;-85
2022/03/02 02:53:02;;;;;;;6.60;4.68;;;17.90;42.70;;;;;;5066768;28;20180;-85
2022/03/02 02:55:29;;;;;;;7.75;5.22;;;17.90;42.60;;;;;;5067262;28;20157;-85
2022/03/02 02:57:57;;;;;;;6.97;5.20;;;18.00;42.90;;;;;;5050781;28;20170;-84
2022/03/02 03:00:28;;;;;;;6.93;4.70;;;18.00;43.50;;;;;;5067020;28;20146;-84
2022/03/02 03:02:55;;;;;;;6.88;4.78;;;17.90;42.60;;;;;;5066835;28;20182;-84
2022/03/02 03:05:22;;;;;;;7.07;5.10;;;17.90;42.70;;;;;;5083917;28;20168;-84
2022/03/02 03:07:48;;;;;;;8.32;5.15;;;18.00;42.70;;;;;;5054366;28;20161;-84
2022/03/02 03:10:16;;;;;;;7.93;5.10;;;18.00;42.60;;;;;;5053735;28;20183;-86
2022/03/02 03:12:43;;;;;;;6.75;4.57;;;18.00;42.60;;;;;;5069580;28;20153;-85
2022/03/02 03:15:09;;;;;;;6.78;5.22;;;17.90;42.60;;;;;;5054376;28;20162;-86
2022/03/02 03:17:38;;;;;;;6.78;4.57;;;18.00;42.80;;;;;;5053810;28;20162;-85
2022/03/02 03:20:05;;;;;;;6.22;4.70;;;17.90;42.80;;;;;;5070099;28;20168;-85
2022/03/02 03:22:33;;;;;;;8.18;5.43;;;18.00;43.00;;;;;;5053434;28;20197;-84
2022/03/02 03:24:59;;;;;;;6.93;4.93;;;17.90;42.80;;;;;;5069979;28;20150;-84
2022/03/02 03:27:26;;;;;;;8.20;5.20;;;17.90;42.80;;;;;;5070372;28;20207;-84
2022/03/02 03:29:53;;;;;;;7.75;5.40;;;17.90;42.70;;;;;;5069155;28;20214;-84
2022/03/02 03:32:19;;;;;;;7.53;4.82;;;17.90;42.60;;;;;;5049388;28;20276;-85
2022/03/02 03:34:46;;;;;;;6.63;4.90;;;18.00;43.00;;;;;;5049734;28;20177;-83
2022/03/02 03:37:16;;;;;;;7.13;5.22;;;17.90;43.10;;;;;;5015745;28;20518;-83
2022/03/02 03:39:43;;;;;;;7.80;4.30;;;17.90;43.00;;;;;;5032534;28;20212;-84
2022/03/02 03:42:10;;;;;;;8.73;5.13;;;17.90;42.80;;;;;;5032494;28;20188;-84
2022/03/02 03:44:36;;;;;;;7.20;4.57;;;17.90;43.00;;;;;;5049004;28;20186;-84
2022/03/02 03:47:06;;;;;;;7.80;5.18;;;17.90;43.10;;;;;;5049777;28;20147;-83
2022/03/02 03:49:32;;;;;;;7.63;5.10;;;17.90;42.70;;;;;;5066564;28;20155;-84
2022/03/02 03:51:57;;;;;;;7.57;5.18;;;17.90;43.00;;;;;;5033703;28;20169;-84
2022/03/02 03:54:23;;;;;;;6.43;4.88;;;17.90;43.10;;;;;;5033196;28;20593;-86
2022/03/02 03:56:48;;;;;;;8.63;5.53;;;17.90;43.00;;;;;;5049954;28;20193;-83
2022/03/02 03:59:14;;;;;;;6.85;5.00;;;17.90;43.00;;;;;;5067253;28;20568;-83
2022/03/02 04:01:41;;;;;;;6.85;5.00;;;17.80;43.00;;;;;;5049843;28;20162;-83
2022/03/02 04:04:07;;;;;;;6.90;4.85;;;17.90;43.20;;;;;;5032802;28;20201;-83
2022/03/02 04:06:38;;;;;;;7.95;5.15;;;17.90;43.30;;;;;;5032866;28;20161;-82
2022/03/02 04:09:04;;;;;;;7.68;4.90;;;17.80;43.10;;;;;;5049448;28;20162;-83
2022/03/02 04:11:30;;;;;;;8.55;5.10;;;17.90;43.30;;;;;;5032142;28;20722;-85
2022/03/02 04:14:00;;;;;;;7.95;5.05;;;17.80;43.40;;;;;;5033249;28;20230;-84
2022/03/02 04:16:28;;;;;;;7.15;5.28;;;17.80;43.20;;;;;;5047962;28;20213;-87
2022/03/02 04:18:56;;;;;;;7.95;5.13;;;17.80;43.30;;;;;;5048832;28;20220;-84
2022/03/02 04:21:26;;;;;;;7.22;4.72;;;17.80;43.30;;;;;;5016578;28;20177;-84
2022/03/02 04:23:52;;;;;;;6.47;4.93;;;17.90;43.30;;;;;;5015324;28;20287;-84
2022/03/02 04:26:18;;;;;;;6.60;4.78;;;17.80;43.30;;;;;;5049114;28;20616;-84
2022/03/02 04:28:50;;;;;;;8.30;4.90;;;17.90;43.50;;;;;;5032642;28;20159;-87
2022/03/02 04:31:16;;;;;;;6.45;4.97;;;17.80;43.60;;;;;;5049099;28;20526;-84
2022/03/02 04:33:41;;;;;;;6.68;4.95;;;17.70;43.80;;;;;;5071315;28;20190;-84
2022/03/02 04:36:07;;;;;;;7.55;4.60;;;17.90;43.50;;;;;;5088004;28;20555;-84
2022/03/02 04:38:33;;;;;;;8.18;4.88;;;17.80;43.40;;;;;;5054894;28;20199;-85
2022/03/02 04:40:59;;;;;;;6.97;4.93;;;17.90;43.50;;;;;;5071759;28;20160;-84
2022/03/02 04:43:24;;;;;;;7.68;4.95;;;17.80;43.30;;;;;;5054776;28;20200;-84
2022/03/02 04:45:50;;;;;;;6.63;4.72;;;17.90;43.40;;;;;;5054171;28;20210;-85
2022/03/02 04:48:16;;;;;;;6.38;4.80;;;17.80;43.20;;;;;;5088538;28;20165;-84
2022/03/02 04:50:42;;;;;;;6.40;4.95;;;17.90;43.50;;;;;;5071247;28;20183;-86
2022/03/02 04:53:08;;;;;;;7.18;4.80;;;17.80;43.60;;;;;;5071117;28;20218;-84
2022/03/02 04:55:37;;;;;;;7.88;5.28;;;17.80;43.50;;;;;;5087839;28;20141;-84
2022/03/02 04:58:05;;;;;;;6.75;4.70;;;17.80;43.40;;;;;;5054194;28;20161;-84
2022/03/02 05:00:38;;;;;;;7.38;5.10;;;17.80;43.40;;;;;;5070932;28;20631;-84
2022/03/02 05:03:05;;;;;;;6.80;4.75;;;17.80;43.60;;;;;;5054211;28;20216;-86
2022/03/02 05:05:36;;;;;;;6.53;4.88;;;17.80;43.60;;;;;;5071225;28;20165;-84
2022/03/02 05:08:06;;;;;;;7.22;4.63;;;17.80;43.70;;;;;;5070993;28;20153;-85
2022/03/02 05:10:32;;;;;;;6.53;4.75;;;17.80;43.60;;;;;;5087084;28;20164;-84
2022/03/02 05:13:04;;;;;;;9.77;5.35;;;17.80;43.70;;;;;;5054326;28;20161;-84
2022/03/02 05:15:35;;;;;;;7.05;4.70;;;17.70;43.60;;;;;;5069843;28;20184;-84
2022/03/02 05:18:02;;;;;;;6.90;5.00;;;17.80;43.50;;;;;;5069917;28;20189;-85
2022/03/02 05:20:33;;;;;;;7.15;4.80;;;17.80;43.70;;;;;;5069167;28;20204;-84
2022/03/02 05:23:01;;;;;;;6.75;4.57;;;17.80;43.90;;;;;;5053644;28;20208;-84
2022/03/02 05:25:26;;;;;;;6.65;4.53;;;17.70;43.60;;;;;;5037346;28;20187;-88
2022/03/02 05:27:55;;;;;;;8.23;4.60;;;17.80;42.70;;;;;;5054266;28;20165;-85
2022/03/02 05:30:21;;;;;;;7.22;4.68;;;17.90;42.80;;;;;;5069815;28;20160;-84
2022/03/02 05:32:52;;;;;;;6.43;4.72;;;18.00;42.30;;;;;;5010102;28;1258264;-85
2022/03/02 05:35:21;;;;;;;7.03;4.85;;;18.00;42.60;;;;;;5054551;28;20157;-85
2022/03/02 05:37:51;;;;;;;6.38;4.53;;;18.00;42.60;;;;;;5053039;28;20180;-86
2022/03/02 05:40:23;;;;;;;6.65;4.50;;;18.00;42.60;;;;;;5053971;28;20186;-85
2022/03/02 05:42:53;;;;;;;7.25;4.60;;;18.00;42.50;;;;;;5053590;28;20226;-86
2022/03/02 05:45:24;;;;;;;6.15;4.35;;;18.10;42.20;;;;;;5054731;28;20185;-85
2022/03/02 05:47:53;;;;;;;6.57;4.70;;;18.10;42.10;;;;;;5053769;28;20234;-84
2022/03/02 05:50:18;;;;;;;6.22;4.55;;;18.10;42.30;;;;;;5069976;28;20184;-84
2022/03/02 05:52:48;;;;;;;6.70;4.28;;;18.10;42.00;;;;;;5055533;28;20165;-84
2022/03/02 05:55:15;;;;;;;7.32;4.78;;;18.20;41.80;;;;;;5092984;28;20149;-85
2022/03/02 05:57:45;;;;;;;7.32;4.70;;;18.30;41.70;;;;;;5057352;28;20187;-85
2022/03/02 06:00:13;;;;;;;5.53;4.13;;;18.10;41.90;;;;;;5056312;28;20181;-85
2022/03/02 06:02:40;;;;;;;6.47;4.68;;;18.20;41.60;;;;;;5053435;28;20292;-85
2022/03/02 06:05:09;;;;;;;5.93;4.53;;;18.20;41.80;;;;;;5066940;28;20201;-87
2022/03/02 06:07:35;;;;;;;6.15;4.32;;;18.30;41.10;;;;;;5071873;28;20157;-87
2022/03/02 06:10:01;;;;;;;5.32;4.05;;;18.40;41.60;;;;;;5070709;28;20157;-84
2022/03/02 06:12:28;;;;;;;6.93;4.30;;;18.20;42.10;;;;;;5054396;28;20541;-85
2022/03/02 06:14:54;;;;;;;6.93;4.35;;;18.30;41.30;;;;;;5085646;28;20181;-87
2022/03/02 06:17:26;;;;;;;7.03;4.53;;;18.30;41.30;;;;;;5053027;28;20157;-88
2022/03/02 06:19:58;;;;;;;6.03;4.30;;;18.30;41.30;;;;;;5082518;28;20184;-85
2022/03/02 06:22:28;;;;;;;6.65;4.68;;;18.30;41.20;;;;;;5050338;28;20201;-84
2022/03/02 06:24:59;;;;;;;6.43;4.45;;;18.30;41.30;;;;;;5066370;28;20694;-85
2022/03/02 06:27:33;;;;;;;6.28;4.50;;;18.30;41.20;;;;;;5064416;28;20195;-86
2022/03/02 06:30:05;;;;;;;6.43;4.40;;;18.30;41.30;;;;;;5037317;28;20187;-83
2022/03/02 06:32:31;;;;;;;6.10;4.40;;;18.30;41.30;;;;;;5054117;28;20236;-84
2022/03/02 06:35:00;;;;;;;5.70;4.40;;;18.30;41.10;;;;;;5070614;28;20192;-83
2022/03/02 06:37:26;;;;;;;6.05;4.45;;;18.30;41.10;;;;;;5068055;28;20180;-82
2022/03/02 06:39:53;;;;;;;5.53;4.25;;;18.30;40.60;;;;;;5086586;28;20173;-84
2022/03/02 06:42:33;;;;;;;5.78;4.35;;;18.40;40.60;;;;;;5073805;28;20161;-83
2022/03/02 06:45:15;;;;;;;6.05;4.80;;;18.40;40.70;;;;;;5058274;28;20567;-83
2022/03/02 06:48:17;;;;;;;7.75;4.57;;;18.40;40.70;;;;;;5076996;28;20199;-84
2022/03/02 06:50:44;;;;;;;6.05;4.13;;;18.50;41.00;;;;;;5075485;28;20607;-83
2022/03/02 06:53:15;;;;;;;5.82;4.07;;;18.40;40.80;;;;;;5059523;28;20222;-84
2022/03/02 06:55:53;;;;;;;5.40;4.07;;;18.40;40.50;;;;;;5076628;28;20185;-85
2022/03/02 06:58:25;;;;;;;6.75;4.82;;;18.50;40.40;;;;;;5078932;28;20188;-83
2022/03/02 07:00:56;;;;;;;5.78;3.97;;;18.50;40.20;;;;;;5077781;28;20204;-83
2022/03/02 07:03:54;;;;;;;5.72;4.53;;;18.40;40.20;;;;;;5062639;28;20224;-82
2022/03/02 07:06:22;;;;;;;6.97;4.63;;;18.40;40.20;;;;;;5049063;28;20177;-82
2022/03/02 07:08:57;;;;;;;6.45;4.32;;;18.50;40.60;;;;;;5056432;28;20177;-84
2022/03/02 07:11:25;;;;;;;5.45;4.38;;;18.50;40.60;;;;;;5057935;28;20149;-83
2022/03/02 07:13:58;;;;;;;7.18;4.70;;;18.40;41.10;;;;;;5056317;28;20597;-84
2022/03/02 07:16:29;;;;;;;6.20;4.70;;;18.50;40.60;;;;;;5056880;28;20662;-82
2022/03/02 07:19:01;;;;;;;6.97;4.72;;;18.50;40.50;;;;;;5038702;28;20185;-83
2022/03/02 07:21:30;;;;;;;6.30;4.15;;;18.50;40.50;;;;;;5058144;28;20186;-83
2022/03/02 07:24:01;;;;;;;6.20;4.65;;;18.50;40.30;;;;;;5076981;28;20219;-82
2022/03/02 07:26:28;;;;;;;6.28;4.72;;;18.50;40.60;;;;;;5078092;28;20176;-83
2022/03/02 07:28:53;;;;;;;5.95;4.35;;;18.50;40.50;;;;;;5058274;28;20179;-84
2022/03/02 07:31:22;;;;;;;8.02;4.47;;;18.50;40.40;;;;;;5072542;28;20153;-84
2022/03/02 07:33:52;;;;;;;6.50;4.53;;;18.50;40.20;;;;;;5055764;28;20181;-84
2022/03/02 07:36:20;;;;;;;6.38;4.25;;;18.40;40.30;;;;;;5054819;28;20163;-86
2022/03/02 07:38:51;;;;;;;6.43;4.32;;;18.50;40.30;;;;;;5052464;28;20157;-88
2022/03/02 07:41:20;;;;;;;6.95;4.68;;;18.50;40.30;;;;;;5049704;28;20279;-86
2022/03/02 07:43:57;;;;;;;5.05;4.20;;;18.60;40.30;;;;;;5050192;28;20208;-86
2022/03/02 07:46:29;;;;;;;7.63;4.65;;;18.60;40.30;;;;;;5035339;28;20180;-87
2022/03/02 07:48:58;;;;;;;5.65;4.20;;;18.60;40.20;;;;;;5031014;28;20562;-85
2022/03/02 07:51:26;;;;;;;5.97;4.40;;;18.60;40.20;;;;;;5027730;28;20176;-85
2022/03/02 07:54:01;;;;;;;9.45;4.70;;;18.50;40.30;;;;;;5065397;28;20537;-86
2022/03/02 07:56:28;;;;;;;5.90;4.50;;;18.50;40.30;;;;;;5049186;28;20168;-87
2022/03/02 07:59:00;;;;;;;6.25;4.50;;;18.50;40.40;;;;;;5062444;28;20155;-86
2022/03/02 08:01:26;;;;;;;5.75;4.38;;;18.50;40.20;;;;;;5046848;28;20185;-84
2022/03/02 08:03:52;;;;;;;5.57;4.28;;;18.60;40.30;;;;;;5061464;28;20249;-83
2022/03/02 08:06:20;;;;;;;5.93;4.40;;;18.50;40.20;;;;;;5097114;28;20165;-85
2022/03/02 08:08:46;;;;;;;7.07;4.47;;;18.60;40.20;;;;;;5063437;28;20149;-84
2022/03/02 08:11:12;;;;;;;6.47;4.47;;;18.50;40.20;;;;;;5064382;28;20249;-86
2022/03/02 08:13:38;;;;;;;5.85;4.43;;;18.50;40.30;;;;;;5045751;28;20165;-87
2022/03/02 08:16:05;;;;;;;6.70;4.25;;;18.50;40.20;;;;;;5079610;28;20153;-83
2022/03/02 08:18:30;;;;;;;6.30;4.40;;;18.60;40.00;;;;;;5096141;28;20546;-85
2022/03/02 08:20:57;;;;;;;5.55;4.10;;;18.50;39.90;;;;;;5061980;28;20152;-84
2022/03/02 08:23:24;;;;;;;5.32;4.22;;;18.60;39.90;;;;;;5063027;28;20193;-87
2022/03/02 08:25:52;;;;;;;6.72;4.43;;;18.60;39.60;;;;;;5060170;28;20174;-84
2022/03/02 08:28:18;;;;;;;5.88;4.65;;;18.60;39.80;;;;;;5062137;28;20166;-85
2022/03/02 08:30:45;;;;;;;6.38;4.40;;;18.70;39.40;;;;;;5058841;28;20524;-86
2022/03/02 08:33:15;;;;;;;6.25;4.47;;;18.60;39.70;;;;;;5058234;28;20298;-86
2022/03/02 08:35:46;;;;;;;6.00;4.13;;;18.60;39.70;;;;;;5058570;28;20180;-86
2022/03/02 08:38:14;;;;;;;6.85;4.40;;;18.60;40.00;;;;;;5059735;28;20154;-85
2022/03/02 08:40:44;;;;;;;6.85;4.30;;;18.50;40.10;;;;;;5053028;28;20177;-85
2022/03/02 08:43:13;;;;;;;4.90;3.88;;;18.50;40.00;;;;;;5105180;28;20701;-86
2022/03/02 08:45:43;;;;;;;6.88;4.55;;;18.60;39.90;;;;;;5063141;28;20258;-87
2022/03/02 08:48:11;;;;;;;5.88;4.40;;;18.60;39.90;;;;;;5041773;28;20658;-88
2022/03/02 08:50:37;;;;;;;5.82;4.47;;;18.60;40.40;;;;;;5060248;28;20311;-88
2022/03/02 08:53:03;;;;;;;5.93;4.43;;;18.60;39.60;;;;;;5058414;28;20198;-86
2022/03/02 08:55:31;;;;;;;6.97;4.68;;;18.70;39.50;;;;;;5058233;28;20210;-84
2022/03/02 08:57:57;;;;;;;5.95;4.03;;;18.80;39.50;;;;;;5061011;28;20172;-83
2022/03/02 09:00:23;;;;;;;5.30;4.20;;;18.70;39.40;;;;;;5077693;28;20165;-85
2022/03/02 09:02:48;;;;;;;5.40;4.30;;;18.70;39.50;;;;;;5060250;28;20192;-82
2022/03/02 09:05:16;;;;;;;7.28;4.78;;;18.80;39.40;;;;;;5076968;28;20177;-82
2022/03/02 09:07:41;;;;;;;5.93;4.38;;;18.70;39.50;;;;;;5095747;28;20195;-83
2022/03/02 09:10:07;;;;;;;5.70;4.38;;;18.70;40.00;;;;;;5077802;28;20153;-85
2022/03/02 09:12:36;;;;;;;6.28;4.55;;;18.70;39.80;;;;;;5061531;28;20267;-85
2022/03/02 09:15:04;;;;;;;6.00;4.78;;;18.80;39.60;;;;;;5059425;28;20580;-84
2022/03/02 09:17:30;;;;;;;5.82;3.83;;;18.80;39.50;;;;;;5043380;28;20279;-87
2022/03/02 09:19:57;;;;;;;5.68;4.43;;;18.70;39.50;;;;;;5050338;28;20171;-80
2022/03/02 09:22:28;;;;;;;4.82;4.10;;;18.70;39.50;;;;;;5079346;28;20556;-85
2022/03/02 09:24:57;;;;;;;6.90;4.50;;;18.80;39.40;;;;;;5042952;28;20177;-85
2022/03/02 09:27:27;;;;;;;5.78;4.18;;;18.80;39.70;;;;;;5058613;28;20188;-84
2022/03/02 09:29:53;;;;;;;6.07;4.32;;;18.70;39.80;;;;;;5060604;28;20176;-85
2022/03/02 09:32:18;;;;;;;5.82;4.53;;;18.70;39.90;;;;;;5094402;28;20237;-83
2022/03/02 09:34:48;;;;;;;5.47;4.13;;;18.60;39.80;;;;;;5076026;28;20635;-83
2022/03/02 09:37:14;;;;;;;4.82;4.10;;;18.70;39.80;;;;;;5060263;28;20225;-83
2022/03/02 09:39:40;;;;;;;5.68;4.10;;;18.70;39.80;;;;;;5043268;28;20623;-83
2022/03/02 09:42:11;;;;;;;8.32;4.55;;;18.70;39.70;;;;;;5076192;28;20546;-82
2022/03/02 09:44:42;;;;;;;5.85;4.03;;;18.70;39.80;;;;;;5059482;28;20258;-81
2022/03/02 09:47:09;;;;;;;7.93;4.00;;;18.70;39.60;;;;;;5059462;28;20165;-83
2022/03/02 09:49:35;;;;;;;5.65;3.88;;;18.80;39.40;;;;;;5076144;28;20182;-82
2022/03/02 09:52:07;;;;;;;6.15;4.20;;;18.80;39.70;;;;;;5062858;28;20163;-84
2022/03/02 09:54:37;;;;;;;6.05;4.25;;;18.70;39.60;;;;;;5061089;28;20179;-84
2022/03/02 09:57:05;;;;;;;5.70;4.03;;;18.80;39.60;;;;;;5095594;28;20235;-85
2022/03/02 09:59:33;;;;;;;6.25;4.10;;;18.80;39.60;;;;;;5064740;28;20153;-86
2022/03/02 10:02:06;;;;;;;5.82;4.03;;;18.90;39.60;;;;;;5045877;28;20515;-84
2022/03/02 10:04:33;;;;;;;7.68;4.57;;;18.90;39.60;;;;;;5045023;28;20219;-84
2022/03/02 10:09:52;;;;;;;6.75;3.95;;;18.90;39.70;;;;;;5051315;28;20236;-88
2022/03/02 10:12:22;;;;;;;5.95;4.15;;;18.80;39.80;;;;;;5062416;28;20643;-85
2022/03/02 10:14:53;;;;;;;7.90;3.83;;;18.80;39.90;;;;;;5061383;28;20267;-84
2022/03/02 10:17:24;;;;;;;6.32;4.18;;;18.90;39.60;;;;;;5059235;28;20703;-83
2022/03/02 10:19:56;;;;;;;5.13;3.88;;;18.90;39.70;;;;;;5059654;28;20222;-85
2022/03/02 10:22:52;;;;;;;5.53;3.78;;;19.00;39.60;;;;;;5043656;28;20546;-83
2022/03/02 10:25:42;;;;;;;8.05;4.03;;;18.90;39.60;;;;;;5031829;28;20334;-84
2022/03/02 10:28:16;;;;;;;5.90;4.00;;;19.00;39.70;;;;;;5016255;28;20184;-85
2022/03/02 10:30:44;;;;;;;5.75;4.00;;;19.00;39.60;;;;;;5063931;28;20201;-86
2022/03/02 10:33:22;;;;;;;8.48;4.00;;;19.00;39.70;;;;;;5061438;28;20298;-85
2022/03/02 10:36:02;;;;;;;6.00;4.15;;;19.00;39.70;;;;;;5062409;28;20169;-83
2022/03/02 10:38:39;;;;;;;6.40;4.00;;;19.00;39.60;;;;;;5061080;28;20199;-86
2022/03/02 10:41:07;;;;;;;5.00;3.63;;;19.10;39.60;;;;;;5046061;28;20157;-86
2022/03/02 10:43:39;;;;;;;4.80;3.80;;;19.00;39.50;;;;;;5060749;28;20271;-84
2022/03/02 10:46:06;;;;;;;6.00;3.78;;;19.10;39.30;;;;;;5062446;28;20663;-83
2022/03/02 10:48:44;;;;;;;6.63;3.88;;;19.10;39.20;;;;;;5062474;28;20203;-84
2022/03/02 10:51:10;;;;;;;5.28;3.72;;;19.10;39.20;;;;;;5063930;28;20240;-87
2022/03/02 10:53:40;;;;;;;6.00;3.80;;;19.10;39.30;;;;;;5064344;28;20581;-85
2022/03/02 10:56:09;;;;;;;7.57;4.05;;;19.10;39.30;;;;;;5077991;28;20176;-86
2022/03/02 10:58:37;;;;;;;5.43;3.55;;;19.10;39.30;;;;;;5043515;28;20184;-87
2022/03/02 11:01:08;;;;;;;7.60;4.20;;;19.10;39.40;;;;;;5060958;28;20263;-85
2022/03/02 11:03:39;;;;;;;8.13;4.03;;;19.10;39.50;;;;;;5062610;28;20195;-88
2022/03/02 11:06:08;;;;;;;5.70;3.92;;;19.20;39.70;;;;;;5027869;28;20562;-85
2022/03/02 11:08:37;;;;;;;8.88;3.90;;;19.10;39.60;;;;;;5027089;28;20177;-86
2022/03/02 11:11:05;;;;;;;7.07;4.20;;;19.20;39.70;;;;;;5027887;28;20211;-87
2022/03/02 11:13:31;;;;;;;10.15;4.20;;;19.10;39.60;;;;;;5044053;28;20697;-86
2022/03/02 11:16:00;;;;;;;6.20;4.32;;;19.10;39.80;;;;;;5060344;28;20168;-84
2022/03/02 11:18:48;;;;;;;5.43;3.22;;;19.10;39.70;;;;;;5060778;28;20489;-85
2022/03/02 11:21:21;;;;;;;6.28;3.90;;;19.10;39.40;;;;;;5061360;28;20241;-84
2022/03/02 11:23:48;;;;;;;5.93;3.92;;;19.20;39.50;;;;;;5054217;28;20236;-87
2022/03/02 11:26:23;;;;;;;6.07;3.50;;;19.10;39.40;;;;;;5082147;28;20222;-85
2022/03/02 11:28:53;;;;;;;5.93;3.60;;;19.10;39.20;;;;;;5064224;28;20192;-83
2022/03/02 11:31:30;;;;;;;7.35;3.88;;;19.20;39.20;;;;;;5064619;28;20176;-85
2022/03/02 11:34:18;;;;;;;8.63;3.50;;;19.20;39.20;;;;;;5064643;28;20249;-85
2022/03/02 11:36:52;;;;;;;5.88;3.67;;;19.10;39.30;;;;;;5041677;28;20189;-86
2022/03/02 11:39:19;;;;;;;7.47;4.03;;;19.10;39.90;;;;;;5060122;28;20641;-85
2022/03/02 11:41:57;;;;;;;5.43;4.00;;;19.10;39.30;;;;;;5067948;28;20157;-87
2022/03/02 11:44:34;;;;;;;8.48;3.70;;;19.10;39.20;;;;;;5048903;28;20319;-85
2022/03/02 11:47:05;;;;;;;7.95;3.78;;;19.10;39.20;;;;;;5066766;28;20267;-86
2022/03/02 11:49:45;;;;;;;6.10;3.80;;;19.10;39.50;;;;;;5033301;28;20185;-87
2022/03/02 11:52:20;;;;;;;9.95;3.45;;;19.10;39.50;;;;;;5082288;28;20259;-87
2022/03/02 11:54:51;;;;;;;5.30;3.40;;;19.10;39.60;;;;;;5048290;28;20247;-88
2022/03/02 11:57:20;;;;;;;7.32;3.80;;;19.10;39.30;;;;;;5045642;28;20180;-87
2022/03/02 11:59:48;;;;;;;6.78;3.70;;;19.20;39.30;;;;;;5045867;28;20462;-86
2022/03/02 12:02:17;;;;;;;7.22;3.83;;;19.20;39.20;;;;;;5039687;28;20605;-84
2022/03/02 12:04:57;;;;;;;9.23;3.97;;;19.20;38.90;;;;;;5060271;28;20204;-83
2022/03/02 12:07:23;;;;;;;8.13;3.80;;;19.20;39.20;;;;;;5078213;28;20188;-85
2022/03/02 12:09:49;;;;;;;7.53;3.50;;;19.20;39.30;;;;;;5059111;28;20157;-84
2022/03/02 12:12:18;;;;;;;5.47;3.45;;;19.20;39.30;;;;;;5077610;28;20173;-86
2022/03/02 12:15:01;;;;;;;7.00;3.65;;;19.10;39.20;;;;;;5079815;28;20169;-86
2022/03/02 12:17:30;;;;;;;6.43;3.97;;;19.10;39.30;;;;;;5062373;28;20172;-85
2022/03/02 12:19:58;;;;;;;7.57;3.72;;;19.10;39.30;;;;;;5080099;28;20153;-84
2022/03/02 12:22:31;;;;;;;7.05;3.45;;;19.10;39.30;;;;;;5077842;28;20206;-84
2022/03/02 12:24:59;;;;;;;4.78;3.40;;;19.10;39.10;;;;;;5044362;28;20602;-84
2022/03/02 12:27:27;;;;;;;7.38;3.63;;;19.20;39.00;;;;;;5026370;28;20183;-86
2022/03/02 12:29:59;;;;;;;4.80;3.30;;;19.20;39.00;;;;;;5028023;28;20182;-84
2022/03/02 12:32:28;;;;;;;6.13;3.50;;;19.10;39.00;;;;;;5030418;28;20221;-86
2022/03/02 12:34:53;;;;;;;6.55;3.85;;;19.10;38.90;;;;;;5033412;28;20174;-83
2022/03/02 12:37:20;;;;;;;7.95;3.60;;;19.10;38.90;;;;;;5067492;28;20203;-86
2022/03/02 12:39:47;;;;;;;6.60;3.40;;;19.10;39.20;;;;;;5068180;28;20498;-84
2022/03/02 12:42:15;;;;;;;7.40;3.50;;;19.20;38.90;;;;;;5051038;28;20191;-84
2022/03/02 12:44:47;;;;;;;5.93;3.30;;;19.10;39.10;;;;;;5062388;28;20279;-85
2022/03/02 12:47:16;;;;;;;5.85;3.15;;;19.20;38.70;;;;;;5047252;28;20647;-83
2022/03/02 12:49:44;;;;;;;4.93;3.30;;;19.20;38.90;;;;;;5097190;28;20633;-83
2022/03/02 12:52:12;;;;;;;4.72;3.38;;;19.20;38.80;;;;;;5061699;28;20177;-83
2022/03/02 12:54:44;;;;;;;4.88;3.17;;;19.20;38.90;;;;;;5062039;28;20176;-84
2022/03/02 12:57:12;;;;;;;6.85;3.30;;;19.20;38.80;;;;;;5028350;28;20181;-85